sensor_id;sensor_type;location;lat;lon;timestamp;P1;durP1;ratioP1;P2;durP2;ratioP2
37355;SDS011;48747;50.250;18.848;2022-12-07T00:01:15;45.52;;;23.20;;
37355;SDS011;48747;50.250;18.848;2022-12-07T00:03:45;41.83;;;22.17;;
37355;SDS011;48747;50.250;18.848;2022-12-07T00:05:51;41.65;;;21.33;;
37355;SDS011;48747;50.250;18.848;2022-12-07T00:07:57;41.15;;;22.42;;
37355;SDS011;48747;50.250;18.848;2022-12-07T00:10:02;47.23;;;23.87;;
37355;SDS011;48747;50.250;18.848;2022-12-07T00:12:09;43.90;;;23.57;;
37355;SDS011;48747;50.250;18.848;2022-12-07T00:14:23;39.88;;;22.90;;
37355;SDS011;48747;50.250;18.848;2022-12-07T00:16:28;43.85;;;22.75;;
37355;SDS011;48747;50.250;18.848;2022-12-07T00:18:35;41.75;;;22.82;;
37355;SDS011;48747;50.250;18.848;2022-12-07T00:20:41;37.30;;;20.90;;
37355;SDS011;48747;50.250;18.848;2022-12-07T00:22:50;44.03;;;21.62;;
37355;SDS011;48747;50.250;18.848;2022-12-07T00:25:04;38.58;;;21.12;;
37355;SDS011;48747;50.250;18.848;2022-12-07T00:27:08;38.58;;;21.27;;
37355;SDS011;48747;50.250;18.848;2022-12-07T00:29:19;38.23;;;20.57;;
37355;SDS011;48747;50.250;18.848;2022-12-07T00:31:25;35.90;;;20.52;;
37355;SDS011;48747;50.250;18.848;2022-12-07T00:33:33;43.15;;;24.00;;
37355;SDS011;48747;50.250;18.848;2022-12-07T00:35:41;42.48;;;21.95;;
37355;SDS011;48747;50.250;18.848;2022-12-07T00:37:48;44.10;;;23.47;;
37355;SDS011;48747;50.250;18.848;2022-12-07T00:40:00;47.33;;;24.92;;
37355;SDS011;48747;50.250;18.848;2022-12-07T00:42:09;47.08;;;26.02;;
37355;SDS011;48747;50.250;18.848;2022-12-07T00:44:15;44.03;;;24.12;;
37355;SDS011;48747;50.250;18.848;2022-12-07T00:46:21;40.17;;;21.97;;
37355;SDS011;48747;50.250;18.848;2022-12-07T00:48:28;45.52;;;24.70;;
37355;SDS011;48747;50.250;18.848;2022-12-07T00:50:32;40.40;;;23.83;;
37355;SDS011;48747;50.250;18.848;2022-12-07T00:52:40;40.63;;;24.35;;
37355;SDS011;48747;50.250;18.848;2022-12-07T00:54:49;45.55;;;27.45;;
37355;SDS011;48747;50.250;18.848;2022-12-07T00:56:55;44.20;;;26.48;;
37355;SDS011;48747;50.250;18.848;2022-12-07T00:59:03;44.63;;;24.65;;
37355;SDS011;48747;50.250;18.848;2022-12-07T01:01:13;45.73;;;25.65;;
37355;SDS011;48747;50.250;18.848;2022-12-07T01:03:21;39.90;;;21.87;;
37355;SDS011;48747;50.250;18.848;2022-12-07T01:05:38;45.67;;;26.85;;
37355;SDS011;48747;50.250;18.848;2022-12-07T01:07:40;44.35;;;24.85;;
37355;SDS011;48747;50.250;18.848;2022-12-07T01:09:48;44.58;;;26.00;;
37355;SDS011;48747;50.250;18.848;2022-12-07T01:11:52;46.37;;;26.50;;
37355;SDS011;48747;50.250;18.848;2022-12-07T01:13:59;49.10;;;27.60;;
37355;SDS011;48747;50.250;18.848;2022-12-07T01:16:05;49.80;;;28.27;;
37355;SDS011;48747;50.250;18.848;2022-12-07T01:18:29;45.08;;;26.95;;
37355;SDS011;48747;50.250;18.848;2022-12-07T01:20:34;50.00;;;27.30;;
37355;SDS011;48747;50.250;18.848;2022-12-07T01:22:43;49.73;;;28.27;;
37355;SDS011;48747;50.250;18.848;2022-12-07T01:24:57;53.25;;;27.82;;
37355;SDS011;48747;50.250;18.848;2022-12-07T01:27:10;56.20;;;30.32;;
37355;SDS011;48747;50.250;18.848;2022-12-07T01:29:15;42.10;;;23.00;;
37355;SDS011;48747;50.250;18.848;2022-12-07T01:31:31;52.20;;;30.48;;
37355;SDS011;48747;50.250;18.848;2022-12-07T01:33:37;50.45;;;28.23;;
37355;SDS011;48747;50.250;18.848;2022-12-07T01:35:44;58.35;;;30.30;;
37355;SDS011;48747;50.250;18.848;2022-12-07T01:37:51;52.88;;;29.48;;
37355;SDS011;48747;50.250;18.848;2022-12-07T01:40:06;56.08;;;30.90;;
37355;SDS011;48747;50.250;18.848;2022-12-07T01:42:13;61.50;;;32.70;;
37355;SDS011;48747;50.250;18.848;2022-12-07T01:44:23;60.67;;;32.48;;
37355;SDS011;48747;50.250;18.848;2022-12-07T01:46:30;57.40;;;30.52;;
37355;SDS011;48747;50.250;18.848;2022-12-07T01:48:37;58.73;;;33.13;;
37355;SDS011;48747;50.250;18.848;2022-12-07T01:50:45;60.78;;;34.25;;
37355;SDS011;48747;50.250;18.848;2022-12-07T01:52:50;56.77;;;30.55;;
37355;SDS011;48747;50.250;18.848;2022-12-07T01:54:59;69.40;;;35.95;;
37355;SDS011;48747;50.250;18.848;2022-12-07T01:57:09;55.78;;;30.80;;
37355;SDS011;48747;50.250;18.848;2022-12-07T01:59:19;61.73;;;32.42;;
37355;SDS011;48747;50.250;18.848;2022-12-07T02:01:27;57.75;;;32.45;;
37355;SDS011;48747;50.250;18.848;2022-12-07T02:03:43;61.85;;;33.85;;
37355;SDS011;48747;50.250;18.848;2022-12-07T02:05:50;63.85;;;34.58;;
37355;SDS011;48747;50.250;18.848;2022-12-07T02:07:55;61.98;;;33.48;;
37355;SDS011;48747;50.250;18.848;2022-12-07T02:10:21;67.75;;;35.30;;
37355;SDS011;48747;50.250;18.848;2022-12-07T02:12:21;59.83;;;32.88;;
37355;SDS011;48747;50.250;18.848;2022-12-07T02:14:34;60.33;;;33.18;;
37355;SDS011;48747;50.250;18.848;2022-12-07T02:31:43;78.42;;;37.63;;
37355;SDS011;48747;50.250;18.848;2022-12-07T02:33:57;78.17;;;37.42;;
37355;SDS011;48747;50.250;18.848;2022-12-07T02:36:15;76.02;;;36.40;;
37355;SDS011;48747;50.250;18.848;2022-12-07T02:43:38;71.12;;;33.45;;
37355;SDS011;48747;50.250;18.848;2022-12-07T02:45:42;67.00;;;32.17;;
37355;SDS011;48747;50.250;18.848;2022-12-07T02:47:51;68.67;;;34.30;;
37355;SDS011;48747;50.250;18.848;2022-12-07T02:49:59;68.05;;;33.60;;
37355;SDS011;48747;50.250;18.848;2022-12-07T02:52:12;63.08;;;30.82;;
37355;SDS011;48747;50.250;18.848;2022-12-07T02:54:18;66.72;;;33.33;;
37355;SDS011;48747;50.250;18.848;2022-12-07T03:03:53;65.17;;;32.83;;
37355;SDS011;48747;50.250;18.848;2022-12-07T03:06:07;65.62;;;30.20;;
37355;SDS011;48747;50.250;18.848;2022-12-07T03:11:21;61.50;;;31.62;;
37355;SDS011;48747;50.250;18.848;2022-12-07T03:16:20;57.27;;;28.35;;
37355;SDS011;48747;50.250;18.848;2022-12-07T03:18:37;55.88;;;27.52;;
37355;SDS011;48747;50.250;18.848;2022-12-07T03:20:41;61.92;;;30.05;;
37355;SDS011;48747;50.250;18.848;2022-12-07T03:22:53;54.75;;;28.17;;
37355;SDS011;48747;50.250;18.848;2022-12-07T03:25:00;53.87;;;26.48;;
37355;SDS011;48747;50.250;18.848;2022-12-07T03:27:17;52.17;;;27.42;;
37355;SDS011;48747;50.250;18.848;2022-12-07T03:29:25;53.23;;;25.72;;
37355;SDS011;48747;50.250;18.848;2022-12-07T03:31:44;45.08;;;24.85;;
37355;SDS011;48747;50.250;18.848;2022-12-07T03:36:23;46.48;;;23.73;;
37355;SDS011;48747;50.250;18.848;2022-12-07T03:38:38;43.90;;;22.40;;
37355;SDS011;48747;50.250;18.848;2022-12-07T03:40:46;46.90;;;23.83;;
37355;SDS011;48747;50.250;18.848;2022-12-07T03:43:06;49.20;;;23.20;;
37355;SDS011;48747;50.250;18.848;2022-12-07T03:45:21;44.35;;;23.85;;
37355;SDS011;48747;50.250;18.848;2022-12-07T03:47:32;40.63;;;22.13;;
37355;SDS011;48747;50.250;18.848;2022-12-07T03:52:08;41.60;;;22.37;;
37355;SDS011;48747;50.250;18.848;2022-12-07T03:57:07;46.60;;;23.25;;
37355;SDS011;48747;50.250;18.848;2022-12-07T03:59:17;40.08;;;21.07;;
37355;SDS011;48747;50.250;18.848;2022-12-07T04:01:29;40.12;;;22.60;;
37355;SDS011;48747;50.250;18.848;2022-12-07T04:03:39;42.00;;;22.20;;
37355;SDS011;48747;50.250;18.848;2022-12-07T04:05:51;43.02;;;22.73;;
37355;SDS011;48747;50.250;18.848;2022-12-07T04:07:57;41.08;;;22.73;;
37355;SDS011;48747;50.250;18.848;2022-12-07T04:10:12;43.17;;;24.10;;
37355;SDS011;48747;50.250;18.848;2022-12-07T04:12:17;38.67;;;22.25;;
37355;SDS011;48747;50.250;18.848;2022-12-07T04:14:30;42.78;;;23.27;;
37355;SDS011;48747;50.250;18.848;2022-12-07T04:16:42;42.53;;;21.52;;
37355;SDS011;48747;50.250;18.848;2022-12-07T04:18:54;48.65;;;24.07;;
37355;SDS011;48747;50.250;18.848;2022-12-07T04:21:12;50.40;;;25.10;;
37355;SDS011;48747;50.250;18.848;2022-12-07T04:23:19;56.98;;;25.12;;
37355;SDS011;48747;50.250;18.848;2022-12-07T04:27:52;50.12;;;27.22;;
37355;SDS011;48747;50.250;18.848;2022-12-07T04:30:02;43.10;;;21.25;;
37355;SDS011;48747;50.250;18.848;2022-12-07T04:32:29;51.53;;;28.40;;
37355;SDS011;48747;50.250;18.848;2022-12-07T04:34:30;50.70;;;26.90;;
37355;SDS011;48747;50.250;18.848;2022-12-07T04:36:40;53.42;;;27.50;;
37355;SDS011;48747;50.250;18.848;2022-12-07T04:38:49;48.98;;;25.77;;
37355;SDS011;48747;50.250;18.848;2022-12-07T04:40:56;50.25;;;25.80;;
37355;SDS011;48747;50.250;18.848;2022-12-07T04:43:07;50.43;;;27.73;;
37355;SDS011;48747;50.250;18.848;2022-12-07T04:45:15;49.25;;;26.12;;
37355;SDS011;48747;50.250;18.848;2022-12-07T04:47:21;59.80;;;29.48;;
37355;SDS011;48747;50.250;18.848;2022-12-07T04:49:30;69.40;;;32.48;;
37355;SDS011;48747;50.250;18.848;2022-12-07T04:51:43;63.80;;;29.50;;
37355;SDS011;48747;50.250;18.848;2022-12-07T04:53:50;66.35;;;29.95;;
37355;SDS011;48747;50.250;18.848;2022-12-07T04:56:03;55.70;;;24.60;;
37355;SDS011;48747;50.250;18.848;2022-12-07T04:58:09;55.83;;;26.45;;
37355;SDS011;48747;50.250;18.848;2022-12-07T05:00:16;57.20;;;25.85;;
37355;SDS011;48747;50.250;18.848;2022-12-07T05:02:27;49.60;;;24.63;;
37355;SDS011;48747;50.250;18.848;2022-12-07T05:04:32;54.58;;;24.27;;
37355;SDS011;48747;50.250;18.848;2022-12-07T05:06:36;49.20;;;23.07;;
37355;SDS011;48747;50.250;18.848;2022-12-07T05:08:48;55.52;;;25.50;;
37355;SDS011;48747;50.250;18.848;2022-12-07T05:10:51;48.23;;;22.05;;
37355;SDS011;48747;50.250;18.848;2022-12-07T05:12:59;47.20;;;23.92;;
37355;SDS011;48747;50.250;18.848;2022-12-07T05:15:05;43.35;;;20.52;;
37355;SDS011;48747;50.250;18.848;2022-12-07T05:17:11;47.40;;;21.80;;
37355;SDS011;48747;50.250;18.848;2022-12-07T05:19:18;54.08;;;22.82;;
37355;SDS011;48747;50.250;18.848;2022-12-07T05:21:24;53.80;;;23.57;;
37355;SDS011;48747;50.250;18.848;2022-12-07T05:23:34;46.28;;;23.85;;
37355;SDS011;48747;50.250;18.848;2022-12-07T05:25:52;49.13;;;24.25;;
37355;SDS011;48747;50.250;18.848;2022-12-07T05:28:02;49.57;;;23.57;;
37355;SDS011;48747;50.250;18.848;2022-12-07T05:30:10;45.98;;;22.62;;
37355;SDS011;48747;50.250;18.848;2022-12-07T05:32:18;49.67;;;23.62;;
37355;SDS011;48747;50.250;18.848;2022-12-07T05:34:24;48.63;;;23.80;;
37355;SDS011;48747;50.250;18.848;2022-12-07T05:36:36;44.58;;;23.55;;
37355;SDS011;48747;50.250;18.848;2022-12-07T05:38:52;51.18;;;26.87;;
37355;SDS011;48747;50.250;18.848;2022-12-07T05:40:55;54.35;;;28.23;;
37355;SDS011;48747;50.250;18.848;2022-12-07T05:43:03;56.13;;;26.70;;
37355;SDS011;48747;50.250;18.848;2022-12-07T05:45:10;45.73;;;23.80;;
37355;SDS011;48747;50.250;18.848;2022-12-07T05:47:15;42.70;;;23.60;;
37355;SDS011;48747;50.250;18.848;2022-12-07T05:49:25;50.55;;;25.40;;
37355;SDS011;48747;50.250;18.848;2022-12-07T05:51:32;45.17;;;23.50;;
37355;SDS011;48747;50.250;18.848;2022-12-07T05:53:40;48.02;;;25.05;;
37355;SDS011;48747;50.250;18.848;2022-12-07T05:55:48;45.58;;;24.55;;
37355;SDS011;48747;50.250;18.848;2022-12-07T05:57:59;44.53;;;22.67;;
37355;SDS011;48747;50.250;18.848;2022-12-07T06:00:22;46.45;;;24.32;;
37355;SDS011;48747;50.250;18.848;2022-12-07T06:02:25;47.53;;;24.15;;
37355;SDS011;48747;50.250;18.848;2022-12-07T06:04:38;50.03;;;26.95;;
37355;SDS011;48747;50.250;18.848;2022-12-07T06:06:45;43.80;;;22.48;;
37355;SDS011;48747;50.250;18.848;2022-12-07T06:08:50;43.90;;;23.15;;
37355;SDS011;48747;50.250;18.848;2022-12-07T06:10:55;38.88;;;22.45;;
37355;SDS011;48747;50.250;18.848;2022-12-07T06:13:22;47.93;;;22.58;;
37355;SDS011;48747;50.250;18.848;2022-12-07T06:15:24;47.03;;;24.80;;
37355;SDS011;48747;50.250;18.848;2022-12-07T06:17:37;40.83;;;22.17;;
37355;SDS011;48747;50.250;18.848;2022-12-07T06:19:54;48.17;;;24.52;;
37355;SDS011;48747;50.250;18.848;2022-12-07T06:21:58;42.75;;;22.22;;
37355;SDS011;48747;50.250;18.848;2022-12-07T06:24:04;39.78;;;20.48;;
37355;SDS011;48747;50.250;18.848;2022-12-07T06:26:25;35.50;;;19.98;;
37355;SDS011;48747;50.250;18.848;2022-12-07T06:28:34;35.30;;;19.00;;
37355;SDS011;48747;50.250;18.848;2022-12-07T06:30:39;35.88;;;20.02;;
37355;SDS011;48747;50.250;18.848;2022-12-07T06:32:55;39.27;;;20.77;;
37355;SDS011;48747;50.250;18.848;2022-12-07T06:35:02;35.70;;;20.17;;
37355;SDS011;48747;50.250;18.848;2022-12-07T06:37:12;36.33;;;19.17;;
37355;SDS011;48747;50.250;18.848;2022-12-07T06:39:18;33.70;;;18.82;;
37355;SDS011;48747;50.250;18.848;2022-12-07T06:41:24;32.28;;;18.85;;
37355;SDS011;48747;50.250;18.848;2022-12-07T06:43:33;38.92;;;20.72;;
37355;SDS011;48747;50.250;18.848;2022-12-07T06:45:35;40.92;;;20.68;;
37355;SDS011;48747;50.250;18.848;2022-12-07T06:47:48;61.37;;;30.75;;
37355;SDS011;48747;50.250;18.848;2022-12-07T06:49:54;77.95;;;43.83;;
37355;SDS011;48747;50.250;18.848;2022-12-07T06:52:00;82.10;;;48.08;;
37355;SDS011;48747;50.250;18.848;2022-12-07T06:54:11;75.67;;;45.83;;
37355;SDS011;48747;50.250;18.848;2022-12-07T06:56:23;84.00;;;51.08;;
37355;SDS011;48747;50.250;18.848;2022-12-07T06:58:29;53.28;;;34.73;;
37355;SDS011;48747;50.250;18.848;2022-12-07T07:00:52;81.15;;;35.45;;
37355;SDS011;48747;50.250;18.848;2022-12-07T07:03:03;72.95;;;29.70;;
37355;SDS011;48747;50.250;18.848;2022-12-07T07:05:11;50.05;;;23.35;;
37355;SDS011;48747;50.250;18.848;2022-12-07T07:15:27;71.15;;;29.85;;
37355;SDS011;48747;50.250;18.848;2022-12-07T07:17:51;61.73;;;29.67;;
37355;SDS011;48747;50.250;18.848;2022-12-07T07:20:09;57.10;;;25.48;;
37355;SDS011;48747;50.250;18.848;2022-12-07T07:22:38;59.80;;;26.40;;
37355;SDS011;48747;50.250;18.848;2022-12-07T07:24:50;48.23;;;22.58;;
37355;SDS011;48747;50.250;18.848;2022-12-07T07:30:14;43.78;;;21.07;;
37355;SDS011;48747;50.250;18.848;2022-12-07T07:32:22;46.08;;;22.25;;
37355;SDS011;48747;50.250;18.848;2022-12-07T07:34:31;54.77;;;25.10;;
37355;SDS011;48747;50.250;18.848;2022-12-07T07:36:42;49.03;;;22.35;;
37355;SDS011;48747;50.250;18.848;2022-12-07T07:38:49;45.35;;;21.90;;
37355;SDS011;48747;50.250;18.848;2022-12-07T07:40:57;54.00;;;25.27;;
37355;SDS011;48747;50.250;18.848;2022-12-07T07:46:15;58.60;;;27.32;;
37355;SDS011;48747;50.250;18.848;2022-12-07T07:48:32;51.05;;;27.20;;
37355;SDS011;48747;50.250;18.848;2022-12-07T07:53:39;49.25;;;24.20;;
37355;SDS011;48747;50.250;18.848;2022-12-07T08:07:25;55.43;;;29.10;;
37355;SDS011;48747;50.250;18.848;2022-12-07T09:10:29;50.92;;;26.37;;
37355;SDS011;48747;50.250;18.848;2022-12-07T09:12:41;55.90;;;27.10;;
37355;SDS011;48747;50.250;18.848;2022-12-07T09:17:33;70.80;;;34.53;;
37355;SDS011;48747;50.250;18.848;2022-12-07T09:20:03;54.70;;;28.85;;
37355;SDS011;48747;50.250;18.848;2022-12-07T09:25:00;55.90;;;29.95;;
37355;SDS011;48747;50.250;18.848;2022-12-07T10:26:21;41.00;;;22.90;;
37355;SDS011;48747;50.250;18.848;2022-12-07T10:28:33;34.05;;;21.65;;
37355;SDS011;48747;50.250;18.848;2022-12-07T10:36:09;34.40;;;19.70;;
37355;SDS011;48747;50.250;18.848;2022-12-07T10:38:22;30.92;;;17.87;;
37355;SDS011;48747;50.250;18.848;2022-12-07T10:45:30;43.05;;;24.25;;
37355;SDS011;48747;50.250;18.848;2022-12-07T11:06:15;49.75;;;21.75;;
37355;SDS011;48747;50.250;18.848;2022-12-07T11:08:39;66.87;;;29.72;;
37355;SDS011;48747;50.250;18.848;2022-12-07T11:23:57;33.02;;;18.42;;
37355;SDS011;48747;50.250;18.848;2022-12-07T11:26:07;34.53;;;18.55;;
37355;SDS011;48747;50.250;18.848;2022-12-07T11:39:35;33.08;;;17.17;;
37355;SDS011;48747;50.250;18.848;2022-12-07T11:41:44;29.92;;;15.48;;
37355;SDS011;48747;50.250;18.848;2022-12-07T11:46:05;27.87;;;15.55;;
37355;SDS011;48747;50.250;18.848;2022-12-07T11:48:16;27.30;;;15.13;;
37355;SDS011;48747;50.250;18.848;2022-12-07T11:50:35;29.98;;;15.83;;
37355;SDS011;48747;50.250;18.848;2022-12-07T11:55:24;23.05;;;13.80;;
37355;SDS011;48747;50.250;18.848;2022-12-07T11:58:23;30.43;;;17.32;;
37355;SDS011;48747;50.250;18.848;2022-12-07T12:00:19;32.42;;;16.50;;
37355;SDS011;48747;50.250;18.848;2022-12-07T12:02:37;26.12;;;12.40;;
37355;SDS011;48747;50.250;18.848;2022-12-07T12:07:38;25.17;;;12.55;;
37355;SDS011;48747;50.250;18.848;2022-12-07T12:09:44;28.15;;;15.70;;
37355;SDS011;48747;50.250;18.848;2022-12-07T12:12:16;20.15;;;12.13;;
37355;SDS011;48747;50.250;18.848;2022-12-07T12:16:52;21.30;;;11.50;;
37355;SDS011;48747;50.250;18.848;2022-12-07T12:21:42;23.00;;;13.28;;
37355;SDS011;48747;50.250;18.848;2022-12-07T12:24:00;25.97;;;14.18;;
37355;SDS011;48747;50.250;18.848;2022-12-07T12:26:19;23.07;;;13.20;;
37355;SDS011;48747;50.250;18.848;2022-12-07T12:33:31;21.57;;;10.50;;
37355;SDS011;48747;50.250;18.848;2022-12-07T12:35:41;18.02;;;9.28;;
37355;SDS011;48747;50.250;18.848;2022-12-07T12:37:49;25.40;;;12.90;;
37355;SDS011;48747;50.250;18.848;2022-12-07T12:42:42;16.45;;;8.93;;
37355;SDS011;48747;50.250;18.848;2022-12-07T12:44:38;15.00;;;8.63;;
37355;SDS011;48747;50.250;18.848;2022-12-07T12:54:54;14.95;;;9.05;;
37355;SDS011;48747;50.250;18.848;2022-12-07T13:01:53;14.70;;;8.53;;
37355;SDS011;48747;50.250;18.848;2022-12-07T13:04:03;17.15;;;9.13;;
37355;SDS011;48747;50.250;18.848;2022-12-07T13:08:35;15.13;;;8.35;;
37355;SDS011;48747;50.250;18.848;2022-12-07T13:10:41;18.00;;;9.95;;
37355;SDS011;48747;50.250;18.848;2022-12-07T13:15:27;15.63;;;9.10;;
37355;SDS011;48747;50.250;18.848;2022-12-07T13:17:12;18.80;;;9.60;;
37355;SDS011;48747;50.250;18.848;2022-12-07T13:21:58;22.37;;;9.55;;
37355;SDS011;48747;50.250;18.848;2022-12-07T13:24:00;17.07;;;8.70;;
37355;SDS011;48747;50.250;18.848;2022-12-07T13:31:09;13.30;;;8.13;;
37355;SDS011;48747;50.250;18.848;2022-12-07T13:33:27;22.95;;;12.00;;
37355;SDS011;48747;50.250;18.848;2022-12-07T13:35:53;15.03;;;8.85;;
37355;SDS011;48747;50.250;18.848;2022-12-07T13:40:17;15.80;;;7.75;;
37355;SDS011;48747;50.250;18.848;2022-12-07T13:44:44;13.60;;;7.62;;
37355;SDS011;48747;50.250;18.848;2022-12-07T13:58:03;20.25;;;11.95;;
37355;SDS011;48747;50.250;18.848;2022-12-07T14:10:33;18.52;;;11.75;;
37355;SDS011;48747;50.250;18.848;2022-12-07T14:12:59;19.83;;;10.60;;
37355;SDS011;48747;50.250;18.848;2022-12-07T14:14:56;18.87;;;10.50;;
37355;SDS011;48747;50.250;18.848;2022-12-07T14:17:16;21.15;;;11.30;;
37355;SDS011;48747;50.250;18.848;2022-12-07T14:19:43;25.70;;;12.82;;
37355;SDS011;48747;50.250;18.848;2022-12-07T14:35:44;33.95;;;16.60;;
37355;SDS011;48747;50.250;18.848;2022-12-07T14:37:50;29.98;;;13.83;;
37355;SDS011;48747;50.250;18.848;2022-12-07T14:40:12;26.97;;;12.63;;
37355;SDS011;48747;50.250;18.848;2022-12-07T14:42:03;32.95;;;15.08;;
37355;SDS011;48747;50.250;18.848;2022-12-07T14:44:17;30.15;;;14.78;;
37355;SDS011;48747;50.250;18.848;2022-12-07T14:46:27;28.98;;;14.33;;
37355;SDS011;48747;50.250;18.848;2022-12-07T14:48:27;50.20;;;22.75;;
37355;SDS011;48747;50.250;18.848;2022-12-07T14:50:33;26.45;;;14.00;;
37355;SDS011;48747;50.250;18.848;2022-12-07T14:52:38;23.70;;;12.82;;
37355;SDS011;48747;50.250;18.848;2022-12-07T14:54:44;19.75;;;11.70;;
37355;SDS011;48747;50.250;18.848;2022-12-07T14:56:51;15.13;;;9.63;;
37355;SDS011;48747;50.250;18.848;2022-12-07T15:01:38;16.57;;;9.98;;
37355;SDS011;48747;50.250;18.848;2022-12-07T15:08:17;50.67;;;18.12;;
37355;SDS011;48747;50.250;18.848;2022-12-07T15:10:16;19.55;;;10.08;;
37355;SDS011;48747;50.250;18.848;2022-12-07T15:14:24;46.08;;;17.23;;
37355;SDS011;48747;50.250;18.848;2022-12-07T15:16:37;60.03;;;22.62;;
37355;SDS011;48747;50.250;18.848;2022-12-07T15:18:46;25.02;;;12.20;;
37355;SDS011;48747;50.250;18.848;2022-12-07T15:20:51;36.70;;;16.00;;
37355;SDS011;48747;50.250;18.848;2022-12-07T15:26:02;62.05;;;19.80;;
37355;SDS011;48747;50.250;18.848;2022-12-07T15:28:20;43.15;;;17.75;;
37355;SDS011;48747;50.250;18.848;2022-12-07T15:33:11;45.20;;;19.70;;
37355;SDS011;48747;50.250;18.848;2022-12-07T15:35:00;29.72;;;14.25;;
37355;SDS011;48747;50.250;18.848;2022-12-07T15:37:04;33.35;;;15.20;;
37355;SDS011;48747;50.250;18.848;2022-12-07T15:39:31;37.63;;;15.83;;
37355;SDS011;48747;50.250;18.848;2022-12-07T15:41:37;33.15;;;15.55;;
37355;SDS011;48747;50.250;18.848;2022-12-07T15:43:38;30.37;;;16.12;;
37355;SDS011;48747;50.250;18.848;2022-12-07T15:46:01;25.95;;;14.07;;
37355;SDS011;48747;50.250;18.848;2022-12-07T15:48:07;49.10;;;21.10;;
37355;SDS011;48747;50.250;18.848;2022-12-07T15:50:19;33.50;;;18.35;;
37355;SDS011;48747;50.250;18.848;2022-12-07T15:54:37;34.85;;;15.78;;
37355;SDS011;48747;50.250;18.848;2022-12-07T16:06:15;24.20;;;13.20;;
37355;SDS011;48747;50.250;18.848;2022-12-07T16:08:27;31.40;;;15.48;;
37355;SDS011;48747;50.250;18.848;2022-12-07T16:10:43;32.73;;;14.93;;
37355;SDS011;48747;50.250;18.848;2022-12-07T16:13:07;40.25;;;19.12;;
37355;SDS011;48747;50.250;18.848;2022-12-07T16:17:52;50.23;;;23.15;;
37355;SDS011;48747;50.250;18.848;2022-12-07T16:19:38;42.15;;;18.95;;
37355;SDS011;48747;50.250;18.848;2022-12-07T16:24:00;43.65;;;19.82;;
37355;SDS011;48747;50.250;18.848;2022-12-07T16:28:20;61.55;;;25.62;;
37355;SDS011;48747;50.250;18.848;2022-12-07T16:32:46;89.30;;;34.10;;
37355;SDS011;48747;50.250;18.848;2022-12-07T16:37:33;67.53;;;28.47;;
37355;SDS011;48747;50.250;18.848;2022-12-07T16:39:44;78.15;;;34.50;;
37355;SDS011;48747;50.250;18.848;2022-12-07T16:41:48;92.82;;;41.37;;
37355;SDS011;48747;50.250;18.848;2022-12-07T16:44:00;57.03;;;26.73;;
37355;SDS011;48747;50.250;18.848;2022-12-07T16:46:08;66.97;;;32.75;;
37355;SDS011;48747;50.250;18.848;2022-12-07T16:48:11;51.90;;;26.23;;
37355;SDS011;48747;50.250;18.848;2022-12-07T16:50:22;49.65;;;25.82;;
37355;SDS011;48747;50.250;18.848;2022-12-07T16:52:26;45.40;;;24.45;;
37355;SDS011;48747;50.250;18.848;2022-12-07T16:54:34;50.30;;;25.27;;
37355;SDS011;48747;50.250;18.848;2022-12-07T16:56:38;42.23;;;23.00;;
37355;SDS011;48747;50.250;18.848;2022-12-07T16:58:43;42.80;;;22.62;;
37355;SDS011;48747;50.250;18.848;2022-12-07T17:00:48;43.42;;;22.05;;
37355;SDS011;48747;50.250;18.848;2022-12-07T17:02:53;43.05;;;21.30;;
37355;SDS011;48747;50.250;18.848;2022-12-07T17:04:56;40.63;;;23.42;;
37355;SDS011;48747;50.250;18.848;2022-12-07T17:07:16;51.48;;;26.20;;
37355;SDS011;48747;50.250;18.848;2022-12-07T17:09:09;47.55;;;23.40;;
37355;SDS011;48747;50.250;18.848;2022-12-07T17:11:21;45.98;;;22.52;;
37355;SDS011;48747;50.250;18.848;2022-12-07T17:13:28;41.92;;;23.40;;
37355;SDS011;48747;50.250;18.848;2022-12-07T17:16:01;41.23;;;22.43;;
37355;SDS011;48747;50.250;18.848;2022-12-07T17:18:08;44.70;;;22.22;;
37355;SDS011;48747;50.250;18.848;2022-12-07T17:20:08;42.23;;;21.10;;
37355;SDS011;48747;50.250;18.848;2022-12-07T17:22:35;39.48;;;19.60;;
37355;SDS011;48747;50.250;18.848;2022-12-07T17:24:26;40.45;;;20.75;;
37355;SDS011;48747;50.250;18.848;2022-12-07T17:26:36;44.48;;;23.70;;
37355;SDS011;48747;50.250;18.848;2022-12-07T18:25:03;23.85;;;14.78;;
37355;SDS011;48747;50.250;18.848;2022-12-07T18:38:19;24.25;;;12.55;;
37355;SDS011;48747;50.250;18.848;2022-12-07T18:40:25;25.92;;;14.03;;
37355;SDS011;48747;50.250;18.848;2022-12-07T19:11:56;25.10;;;12.60;;
37355;SDS011;48747;50.250;18.848;2022-12-07T19:14:01;24.52;;;12.37;;
37355;SDS011;48747;50.250;18.848;2022-12-07T19:16:08;24.43;;;12.53;;
37355;SDS011;48747;50.250;18.848;2022-12-07T19:20:53;23.25;;;12.63;;
37355;SDS011;48747;50.250;18.848;2022-12-07T19:36:07;28.17;;;14.75;;
37355;SDS011;48747;50.250;18.848;2022-12-07T19:38:17;31.70;;;15.63;;
37355;SDS011;48747;50.250;18.848;2022-12-07T19:40:26;26.12;;;13.08;;
37355;SDS011;48747;50.250;18.848;2022-12-07T19:42:30;27.93;;;14.70;;
37355;SDS011;48747;50.250;18.848;2022-12-07T19:44:35;28.67;;;14.20;;
37355;SDS011;48747;50.250;18.848;2022-12-07T19:46:41;36.23;;;15.05;;
37355;SDS011;48747;50.250;18.848;2022-12-07T19:48:48;30.75;;;15.63;;
37355;SDS011;48747;50.250;18.848;2022-12-07T19:51:00;28.50;;;15.30;;
37355;SDS011;48747;50.250;18.848;2022-12-07T20:01:04;36.85;;;19.60;;
37355;SDS011;48747;50.250;18.848;2022-12-07T20:03:10;35.98;;;17.92;;
37355;SDS011;48747;50.250;18.848;2022-12-07T20:05:17;37.00;;;18.73;;
37355;SDS011;48747;50.250;18.848;2022-12-07T20:10:18;53.52;;;25.52;;
37355;SDS011;48747;50.250;18.848;2022-12-07T20:12:41;68.12;;;30.08;;
37355;SDS011;48747;50.250;18.848;2022-12-07T20:20:41;64.42;;;31.07;;
37355;SDS011;48747;50.250;18.848;2022-12-07T20:34:39;139.80;;;46.98;;
37355;SDS011;48747;50.250;18.848;2022-12-07T20:56:42;59.00;;;30.62;;
